sensor_id;sensor_type;location;lat;lon;timestamp;temperature;humidity
54898;DHT22;40800;52.704;6.398;2022-10-16T00:00:43;13.00;99.90
54898;DHT22;40800;52.704;6.398;2022-10-16T00:03:10;13.50;99.90
54898;DHT22;40800;52.704;6.398;2022-10-16T00:05:40;12.70;99.90
54898;DHT22;40800;52.704;6.398;2022-10-16T00:08:07;12.70;99.90
54898;DHT22;40800;52.704;6.398;2022-10-16T00:10:33;13.40;99.90
54898;DHT22;40800;52.704;6.398;2022-10-16T00:12:59;12.70;99.90
54898;DHT22;40800;52.704;6.398;2022-10-16T00:15:25;12.60;99.90
54898;DHT22;40800;52.704;6.398;2022-10-16T00:17:50;12.80;99.90
54898;DHT22;40800;52.704;6.398;2022-10-16T00:20:16;13.20;99.90
54898;DHT22;40800;52.704;6.398;2022-10-16T00:22:41;13.50;99.90
54898;DHT22;40800;52.704;6.398;2022-10-16T00:25:07;12.80;99.90
54898;DHT22;40800;52.704;6.398;2022-10-16T00:27:33;13.30;99.90
54898;DHT22;40800;52.704;6.398;2022-10-16T00:29:59;13.40;99.90
54898;DHT22;40800;52.704;6.398;2022-10-16T00:32:25;13.10;99.90
54898;DHT22;40800;52.704;6.398;2022-10-16T00:34:50;13.40;99.90
54898;DHT22;40800;52.704;6.398;2022-10-16T00:37:16;13.20;99.90
54898;DHT22;40800;52.704;6.398;2022-10-16T00:39:41;12.60;99.90
54898;DHT22;40800;52.704;6.398;2022-10-16T00:42:14;12.70;99.90
54898;DHT22;40800;52.704;6.398;2022-10-16T00:47:15;13.20;99.90
54898;DHT22;40800;52.704;6.398;2022-10-16T00:49:42;12.40;99.90
54898;DHT22;40800;52.704;6.398;2022-10-16T00:52:08;13.10;99.90
54898;DHT22;40800;52.704;6.398;2022-10-16T00:54:35;12.50;99.90
54898;DHT22;40800;52.704;6.398;2022-10-16T00:57:04;12.40;99.90
54898;DHT22;40800;52.704;6.398;2022-10-16T00:59:36;12.80;99.90
54898;DHT22;40800;52.704;6.398;2022-10-16T01:02:05;12.50;99.90
54898;DHT22;40800;52.704;6.398;2022-10-16T01:04:39;13.10;99.90
54898;DHT22;40800;52.704;6.398;2022-10-16T01:07:14;12.80;99.90
54898;DHT22;40800;52.704;6.398;2022-10-16T01:09:51;12.80;99.90
54898;DHT22;40800;52.704;6.398;2022-10-16T01:13:00;12.90;99.90
54898;DHT22;40800;52.704;6.398;2022-10-16T01:15:34;13.10;99.90
54898;DHT22;40800;52.704;6.398;2022-10-16T01:18:23;13.00;99.90
54898;DHT22;40800;52.704;6.398;2022-10-16T01:21:04;13.20;99.90
54898;DHT22;40800;52.704;6.398;2022-10-16T01:26:31;12.50;99.90
54898;DHT22;40800;52.704;6.398;2022-10-16T01:29:09;13.10;99.90
54898;DHT22;40800;52.704;6.398;2022-10-16T01:31:41;12.30;99.90
54898;DHT22;40800;52.704;6.398;2022-10-16T01:34:19;12.60;99.90
54898;DHT22;40800;52.704;6.398;2022-10-16T01:36:55;13.10;99.90
54898;DHT22;40800;52.704;6.398;2022-10-16T01:39:28;12.70;99.90
54898;DHT22;40800;52.704;6.398;2022-10-16T01:42:01;12.60;99.90
54898;DHT22;40800;52.704;6.398;2022-10-16T01:44:31;13.10;99.90
54898;DHT22;40800;52.704;6.398;2022-10-16T01:46:58;13.00;99.90
54898;DHT22;40800;52.704;6.398;2022-10-16T01:49:27;12.50;99.90
54898;DHT22;40800;52.704;6.398;2022-10-16T01:51:57;12.60;99.90
54898;DHT22;40800;52.704;6.398;2022-10-16T01:54:27;13.10;99.90
54898;DHT22;40800;52.704;6.398;2022-10-16T01:56:55;13.30;99.90
54898;DHT22;40800;52.704;6.398;2022-10-16T01:59:24;12.80;99.90
54898;DHT22;40800;52.704;6.398;2022-10-16T02:01:55;12.60;99.90
54898;DHT22;40800;52.704;6.398;2022-10-16T02:04:29;12.40;99.90
54898;DHT22;40800;52.704;6.398;2022-10-16T02:06:56;12.40;99.90
54898;DHT22;40800;52.704;6.398;2022-10-16T02:09:22;12.80;99.90
54898;DHT22;40800;52.704;6.398;2022-10-16T02:11:48;13.20;99.90
54898;DHT22;40800;52.704;6.398;2022-10-16T02:14:15;13.20;99.90
54898;DHT22;40800;52.704;6.398;2022-10-16T02:16:43;13.10;99.90
54898;DHT22;40800;52.704;6.398;2022-10-16T02:19:09;13.00;99.90
54898;DHT22;40800;52.704;6.398;2022-10-16T02:21:56;13.10;99.90
54898;DHT22;40800;52.704;6.398;2022-10-16T02:24:39;13.10;99.90
54898;DHT22;40800;52.704;6.398;2022-10-16T02:27:11;12.40;99.90
54898;DHT22;40800;52.704;6.398;2022-10-16T02:29:43;13.10;99.90
54898;DHT22;40800;52.704;6.398;2022-10-16T02:32:14;13.10;99.90
54898;DHT22;40800;52.704;6.398;2022-10-16T02:34:41;13.30;99.90
54898;DHT22;40800;52.704;6.398;2022-10-16T02:37:07;13.00;99.90
54898;DHT22;40800;52.704;6.398;2022-10-16T02:39:34;13.30;99.90
54898;DHT22;40800;52.704;6.398;2022-10-16T02:42:00;13.30;99.90
54898;DHT22;40800;52.704;6.398;2022-10-16T02:44:25;12.60;99.90
54898;DHT22;40800;52.704;6.398;2022-10-16T02:46:51;12.90;99.90
54898;DHT22;40800;52.704;6.398;2022-10-16T02:49:16;12.60;99.90
54898;DHT22;40800;52.704;6.398;2022-10-16T02:51:43;13.30;99.90
54898;DHT22;40800;52.704;6.398;2022-10-16T02:54:09;13.30;99.90
54898;DHT22;40800;52.704;6.398;2022-10-16T02:56:34;12.80;99.90
54898;DHT22;40800;52.704;6.398;2022-10-16T02:59:00;12.70;99.90
54898;DHT22;40800;52.704;6.398;2022-10-16T03:01:25;12.80;99.90
54898;DHT22;40800;52.704;6.398;2022-10-16T03:03:51;13.30;99.90
54898;DHT22;40800;52.704;6.398;2022-10-16T03:06:17;13.40;99.90
54898;DHT22;40800;52.704;6.398;2022-10-16T03:08:42;13.10;99.90
54898;DHT22;40800;52.704;6.398;2022-10-16T03:11:08;13.50;99.90
54898;DHT22;40800;52.704;6.398;2022-10-16T03:13:33;13.30;99.90
54898;DHT22;40800;52.704;6.398;2022-10-16T03:15:59;13.10;99.90
54898;DHT22;40800;52.704;6.398;2022-10-16T03:18:25;13.10;99.90
54898;DHT22;40800;52.704;6.398;2022-10-16T03:20:50;12.80;99.90
54898;DHT22;40800;52.704;6.398;2022-10-16T03:23:16;13.00;99.90
54898;DHT22;40800;52.704;6.398;2022-10-16T03:25:41;13.20;99.90
54898;DHT22;40800;52.704;6.398;2022-10-16T03:28:07;13.50;99.90
54898;DHT22;40800;52.704;6.398;2022-10-16T03:30:32;12.70;99.90
54898;DHT22;40800;52.704;6.398;2022-10-16T03:32:58;13.30;99.90
54898;DHT22;40800;52.704;6.398;2022-10-16T03:35:24;13.50;99.90
54898;DHT22;40800;52.704;6.398;2022-10-16T03:37:50;13.60;99.90
54898;DHT22;40800;52.704;6.398;2022-10-16T03:40:16;12.80;99.90
54898;DHT22;40800;52.704;6.398;2022-10-16T03:42:43;12.70;99.90
54898;DHT22;40800;52.704;6.398;2022-10-16T03:45:09;13.40;99.90
54898;DHT22;40800;52.704;6.398;2022-10-16T03:47:35;13.40;99.90
54898;DHT22;40800;52.704;6.398;2022-10-16T03:50:01;13.50;99.90
54898;DHT22;40800;52.704;6.398;2022-10-16T03:52:26;12.70;99.90
54898;DHT22;40800;52.704;6.398;2022-10-16T03:54:52;13.50;99.90
54898;DHT22;40800;52.704;6.398;2022-10-16T03:57:18;12.70;99.90
54898;DHT22;40800;52.704;6.398;2022-10-16T03:59:43;13.30;99.90
54898;DHT22;40800;52.704;6.398;2022-10-16T04:02:09;12.70;99.90
54898;DHT22;40800;52.704;6.398;2022-10-16T04:04:35;13.40;99.90
54898;DHT22;40800;52.704;6.398;2022-10-16T04:07:00;13.30;99.90
54898;DHT22;40800;52.704;6.398;2022-10-16T04:09:26;13.00;99.90
54898;DHT22;40800;52.704;6.398;2022-10-16T04:11:52;13.20;99.90
54898;DHT22;40800;52.704;6.398;2022-10-16T04:14:18;12.40;99.90
54898;DHT22;40800;52.704;6.398;2022-10-16T04:16:43;13.00;99.90
54898;DHT22;40800;52.704;6.398;2022-10-16T04:19:10;13.00;99.90
54898;DHT22;40800;52.704;6.398;2022-10-16T04:21:36;13.00;99.90
54898;DHT22;40800;52.704;6.398;2022-10-16T04:24:01;12.90;99.90
54898;DHT22;40800;52.704;6.398;2022-10-16T04:26:27;12.20;99.90
54898;DHT22;40800;52.704;6.398;2022-10-16T04:28:52;13.00;99.90
54898;DHT22;40800;52.704;6.398;2022-10-16T04:31:19;12.40;99.90
54898;DHT22;40800;52.704;6.398;2022-10-16T04:33:45;12.60;99.90
54898;DHT22;40800;52.704;6.398;2022-10-16T04:36:10;13.20;99.90
54898;DHT22;40800;52.704;6.398;2022-10-16T04:38:36;12.30;99.90
54898;DHT22;40800;52.704;6.398;2022-10-16T04:41:03;12.50;99.90
54898;DHT22;40800;52.704;6.398;2022-10-16T04:43:29;12.40;99.90
54898;DHT22;40800;52.704;6.398;2022-10-16T04:45:55;13.00;99.90
54898;DHT22;40800;52.704;6.398;2022-10-16T04:48:22;12.70;99.90
54898;DHT22;40800;52.704;6.398;2022-10-16T04:50:47;13.30;99.90
54898;DHT22;40800;52.704;6.398;2022-10-16T04:53:13;12.70;99.90
54898;DHT22;40800;52.704;6.398;2022-10-16T04:55:39;12.80;99.90
54898;DHT22;40800;52.704;6.398;2022-10-16T04:58:05;13.20;99.90
54898;DHT22;40800;52.704;6.398;2022-10-16T05:00:31;13.20;99.90
54898;DHT22;40800;52.704;6.398;2022-10-16T05:02:56;13.20;99.90
54898;DHT22;40800;52.704;6.398;2022-10-16T05:05:25;12.50;99.90
54898;DHT22;40800;52.704;6.398;2022-10-16T05:07:51;13.00;99.90
54898;DHT22;40800;52.704;6.398;2022-10-16T05:10:16;12.70;99.90
54898;DHT22;40800;52.704;6.398;2022-10-16T05:12:42;13.20;99.90
54898;DHT22;40800;52.704;6.398;2022-10-16T05:15:08;12.60;99.90
54898;DHT22;40800;52.704;6.398;2022-10-16T05:17:34;13.30;99.90
54898;DHT22;40800;52.704;6.398;2022-10-16T05:19:59;12.20;99.90
54898;DHT22;40800;52.704;6.398;2022-10-16T05:22:25;12.20;99.90
54898;DHT22;40800;52.704;6.398;2022-10-16T05:24:51;13.00;99.90
54898;DHT22;40800;52.704;6.398;2022-10-16T05:27:16;13.20;99.90
54898;DHT22;40800;52.704;6.398;2022-10-16T05:29:48;12.50;99.90
54898;DHT22;40800;52.704;6.398;2022-10-16T05:32:15;13.20;99.90
54898;DHT22;40800;52.704;6.398;2022-10-16T05:34:41;12.60;99.90
54898;DHT22;40800;52.704;6.398;2022-10-16T05:37:06;13.00;99.90
54898;DHT22;40800;52.704;6.398;2022-10-16T05:39:32;12.20;99.90
54898;DHT22;40800;52.704;6.398;2022-10-16T05:41:58;13.00;99.90
54898;DHT22;40800;52.704;6.398;2022-10-16T05:44:23;12.10;99.90
54898;DHT22;40800;52.704;6.398;2022-10-16T05:46:49;12.10;99.90
54898;DHT22;40800;52.704;6.398;2022-10-16T05:49:15;12.10;99.90
54898;DHT22;40800;52.704;6.398;2022-10-16T05:51:41;12.10;99.90
54898;DHT22;40800;52.704;6.398;2022-10-16T05:54:07;12.30;99.90
54898;DHT22;40800;52.704;6.398;2022-10-16T05:56:33;12.90;99.90
54898;DHT22;40800;52.704;6.398;2022-10-16T05:58:58;12.60;99.90
54898;DHT22;40800;52.704;6.398;2022-10-16T06:01:24;12.30;99.90
54898;DHT22;40800;52.704;6.398;2022-10-16T06:03:53;13.10;99.90
54898;DHT22;40800;52.704;6.398;2022-10-16T06:06:21;12.90;99.90
54898;DHT22;40800;52.704;6.398;2022-10-16T06:08:48;13.10;99.90
54898;DHT22;40800;52.704;6.398;2022-10-16T06:11:17;13.10;99.90
54898;DHT22;40800;52.704;6.398;2022-10-16T06:13:43;12.20;99.90
54898;DHT22;40800;52.704;6.398;2022-10-16T06:16:11;13.20;99.90
54898;DHT22;40800;52.704;6.398;2022-10-16T06:18:37;12.40;99.90
54898;DHT22;40800;52.704;6.398;2022-10-16T06:21:15;13.20;99.90
54898;DHT22;40800;52.704;6.398;2022-10-16T06:23:42;12.30;99.90
54898;DHT22;40800;52.704;6.398;2022-10-16T06:26:09;12.90;99.90
54898;DHT22;40800;52.704;6.398;2022-10-16T06:28:35;13.20;99.90
54898;DHT22;40800;52.704;6.398;2022-10-16T06:31:02;13.30;99.90
54898;DHT22;40800;52.704;6.398;2022-10-16T06:33:28;12.40;99.90
54898;DHT22;40800;52.704;6.398;2022-10-16T06:35:53;13.40;99.90
54898;DHT22;40800;52.704;6.398;2022-10-16T06:38:19;12.50;99.90
54898;DHT22;40800;52.704;6.398;2022-10-16T06:40:44;13.30;99.90
54898;DHT22;40800;52.704;6.398;2022-10-16T06:43:10;13.40;99.90
54898;DHT22;40800;52.704;6.398;2022-10-16T06:45:36;13.20;99.90
54898;DHT22;40800;52.704;6.398;2022-10-16T06:48:02;12.80;99.90
54898;DHT22;40800;52.704;6.398;2022-10-16T06:50:28;12.40;99.90
54898;DHT22;40800;52.704;6.398;2022-10-16T06:52:53;13.50;99.90
54898;DHT22;40800;52.704;6.398;2022-10-16T06:55:19;13.00;99.90
54898;DHT22;40800;52.704;6.398;2022-10-16T06:57:47;13.60;99.90
54898;DHT22;40800;52.704;6.398;2022-10-16T07:00:13;13.40;99.90
54898;DHT22;40800;52.704;6.398;2022-10-16T07:02:38;13.30;99.90
54898;DHT22;40800;52.704;6.398;2022-10-16T07:05:04;12.90;99.90
54898;DHT22;40800;52.704;6.398;2022-10-16T07:07:30;13.30;99.90
54898;DHT22;40800;52.704;6.398;2022-10-16T07:09:56;12.80;99.90
54898;DHT22;40800;52.704;6.398;2022-10-16T07:12:21;13.00;99.90
54898;DHT22;40800;52.704;6.398;2022-10-16T07:14:47;13.50;99.90
54898;DHT22;40800;52.704;6.398;2022-10-16T07:17:13;12.70;99.90
54898;DHT22;40800;52.704;6.398;2022-10-16T07:19:38;13.00;99.90
54898;DHT22;40800;52.704;6.398;2022-10-16T07:22:04;13.10;99.90
54898;DHT22;40800;52.704;6.398;2022-10-16T07:24:30;13.30;99.90
54898;DHT22;40800;52.704;6.398;2022-10-16T07:26:55;14.00;99.90
54898;DHT22;40800;52.704;6.398;2022-10-16T07:29:21;13.10;99.90
54898;DHT22;40800;52.704;6.398;2022-10-16T07:31:48;13.20;99.90
54898;DHT22;40800;52.704;6.398;2022-10-16T07:34:16;13.10;99.90
54898;DHT22;40800;52.704;6.398;2022-10-16T07:36:42;13.30;99.90
54898;DHT22;40800;52.704;6.398;2022-10-16T07:39:08;13.90;99.90
54898;DHT22;40800;52.704;6.398;2022-10-16T07:41:34;14.00;99.90
54898;DHT22;40800;52.704;6.398;2022-10-16T07:44:02;13.20;99.90
54898;DHT22;40800;52.704;6.398;2022-10-16T07:46:28;13.30;99.90
54898;DHT22;40800;52.704;6.398;2022-10-16T07:48:54;13.20;99.90
54898;DHT22;40800;52.704;6.398;2022-10-16T07:51:22;14.00;99.90
54898;DHT22;40800;52.704;6.398;2022-10-16T07:53:48;13.40;99.90
54898;DHT22;40800;52.704;6.398;2022-10-16T07:56:15;14.00;99.90
54898;DHT22;40800;52.704;6.398;2022-10-16T07:58:41;14.10;99.90
54898;DHT22;40800;52.704;6.398;2022-10-16T08:01:09;13.90;99.90
54898;DHT22;40800;52.704;6.398;2022-10-16T08:03:35;13.40;99.90
54898;DHT22;40800;52.704;6.398;2022-10-16T08:06:01;13.40;99.90
54898;DHT22;40800;52.704;6.398;2022-10-16T08:08:27;13.70;99.90
54898;DHT22;40800;52.704;6.398;2022-10-16T08:10:53;13.60;99.90
54898;DHT22;40800;52.704;6.398;2022-10-16T08:13:19;13.70;99.90
54898;DHT22;40800;52.704;6.398;2022-10-16T08:15:45;14.00;99.90
54898;DHT22;40800;52.704;6.398;2022-10-16T08:18:13;14.00;99.90
54898;DHT22;40800;52.704;6.398;2022-10-16T08:20:39;14.30;99.90
54898;DHT22;40800;52.704;6.398;2022-10-16T08:23:06;14.30;99.90
54898;DHT22;40800;52.704;6.398;2022-10-16T08:25:34;14.40;99.90
54898;DHT22;40800;52.704;6.398;2022-10-16T08:28:02;14.50;99.90
54898;DHT22;40800;52.704;6.398;2022-10-16T08:30:28;13.80;99.90
54898;DHT22;40800;52.704;6.398;2022-10-16T08:32:54;13.60;99.90
54898;DHT22;40800;52.704;6.398;2022-10-16T08:35:19;14.90;99.90
54898;DHT22;40800;52.704;6.398;2022-10-16T08:37:45;14.50;99.90
54898;DHT22;40800;52.704;6.398;2022-10-16T08:40:23;13.70;99.90
54898;DHT22;40800;52.704;6.398;2022-10-16T08:48:27;14.40;99.90
54898;DHT22;40800;52.704;6.398;2022-10-16T08:50:55;14.40;99.90
54898;DHT22;40800;52.704;6.398;2022-10-16T08:53:28;14.60;99.90
54898;DHT22;40800;52.704;6.398;2022-10-16T08:55:55;14.70;99.90
54898;DHT22;40800;52.704;6.398;2022-10-16T08:58:22;14.30;99.90
54898;DHT22;40800;52.704;6.398;2022-10-16T09:00:51;14.10;99.90
54898;DHT22;40800;52.704;6.398;2022-10-16T09:08:57;15.10;99.90
54898;DHT22;40800;52.704;6.398;2022-10-16T09:11:49;14.50;99.90
54898;DHT22;40800;52.704;6.398;2022-10-16T09:20:18;15.20;99.90
54898;DHT22;40800;52.704;6.398;2022-10-16T09:22:44;15.40;99.90
54898;DHT22;40800;52.704;6.398;2022-10-16T09:25:16;15.90;99.90
54898;DHT22;40800;52.704;6.398;2022-10-16T09:27:45;15.20;99.90
54898;DHT22;40800;52.704;6.398;2022-10-16T09:30:17;15.70;99.90
54898;DHT22;40800;52.704;6.398;2022-10-16T09:32:44;15.90;99.90
54898;DHT22;40800;52.704;6.398;2022-10-16T09:35:17;15.80;99.90
54898;DHT22;40800;52.704;6.398;2022-10-16T09:37:46;15.40;99.90
54898;DHT22;40800;52.704;6.398;2022-10-16T09:43:21;15.40;99.90
54898;DHT22;40800;52.704;6.398;2022-10-16T09:45:58;16.10;99.90
54898;DHT22;40800;52.704;6.398;2022-10-16T09:48:37;15.80;99.90
54898;DHT22;40800;52.704;6.398;2022-10-16T09:51:06;15.60;99.90
54898;DHT22;40800;52.704;6.398;2022-10-16T09:53:40;15.70;99.90
54898;DHT22;40800;52.704;6.398;2022-10-16T09:56:09;16.20;99.90
54898;DHT22;40800;52.704;6.398;2022-10-16T09:58:35;15.90;99.90
54898;DHT22;40800;52.704;6.398;2022-10-16T10:01:01;16.40;99.90
54898;DHT22;40800;52.704;6.398;2022-10-16T10:05:58;16.40;99.90
54898;DHT22;40800;52.704;6.398;2022-10-16T10:08:24;16.20;99.90
54898;DHT22;40800;52.704;6.398;2022-10-16T10:10:49;16.50;99.90
54898;DHT22;40800;52.704;6.398;2022-10-16T10:13:22;16.40;99.90
54898;DHT22;40800;52.704;6.398;2022-10-16T10:15:51;16.30;99.90
54898;DHT22;40800;52.704;6.398;2022-10-16T10:18:20;16.20;99.90
54898;DHT22;40800;52.704;6.398;2022-10-16T10:20:58;16.70;99.90
54898;DHT22;40800;52.704;6.398;2022-10-16T10:23:26;16.70;99.90
54898;DHT22;40800;52.704;6.398;2022-10-16T10:31:53;16.10;99.90
54898;DHT22;40800;52.704;6.398;2022-10-16T10:37:51;16.40;99.90
54898;DHT22;40800;52.704;6.398;2022-10-16T10:43:17;16.50;99.90
54898;DHT22;40800;52.704;6.398;2022-10-16T10:45:47;16.80;99.90
54898;DHT22;40800;52.704;6.398;2022-10-16T10:50:57;16.80;99.90
54898;DHT22;40800;52.704;6.398;2022-10-16T10:53:54;16.80;99.90
54898;DHT22;40800;52.704;6.398;2022-10-16T10:59:07;17.10;99.90
54898;DHT22;40800;52.704;6.398;2022-10-16T11:01:59;17.20;99.90
54898;DHT22;40800;52.704;6.398;2022-10-16T11:04:38;17.00;99.90
54898;DHT22;40800;52.704;6.398;2022-10-16T11:07:18;17.10;99.90
54898;DHT22;40800;52.704;6.398;2022-10-16T11:09:53;17.30;99.90
54898;DHT22;40800;52.704;6.398;2022-10-16T11:12:22;17.20;99.90
54898;DHT22;40800;52.704;6.398;2022-10-16T11:15:07;17.20;99.90
54898;DHT22;40800;52.704;6.398;2022-10-16T11:18:12;17.20;99.90
54898;DHT22;40800;52.704;6.398;2022-10-16T11:20:49;17.10;99.90
54898;DHT22;40800;52.704;6.398;2022-10-16T11:23:25;17.40;99.90
54898;DHT22;40800;52.704;6.398;2022-10-16T11:25:54;17.70;99.90
54898;DHT22;40800;52.704;6.398;2022-10-16T11:28:39;17.70;99.90
54898;DHT22;40800;52.704;6.398;2022-10-16T11:31:16;17.60;99.90
54898;DHT22;40800;52.704;6.398;2022-10-16T11:33:57;17.90;99.90
54898;DHT22;40800;52.704;6.398;2022-10-16T11:53:24;17.80;99.90
54898;DHT22;40800;52.704;6.398;2022-10-16T11:55:54;17.70;99.90
54898;DHT22;40800;52.704;6.398;2022-10-16T12:03:48;17.40;99.90
54898;DHT22;40800;52.704;6.398;2022-10-16T12:09:03;17.30;99.90
54898;DHT22;40800;52.704;6.398;2022-10-16T12:16:50;17.20;99.90
54898;DHT22;40800;52.704;6.398;2022-10-16T12:19:17;17.00;99.90
54898;DHT22;40800;52.704;6.398;2022-10-16T12:21:43;16.70;99.90
54898;DHT22;40800;52.704;6.398;2022-10-16T12:26:54;17.20;99.90
54898;DHT22;40800;52.704;6.398;2022-10-16T12:29:37;17.20;99.90
54898;DHT22;40800;52.704;6.398;2022-10-16T12:32:29;17.30;99.90
54898;DHT22;40800;52.704;6.398;2022-10-16T12:34:55;17.60;99.90
54898;DHT22;40800;52.704;6.398;2022-10-16T12:37:24;17.80;99.90
54898;DHT22;40800;52.704;6.398;2022-10-16T12:39:52;18.00;99.90
54898;DHT22;40800;52.704;6.398;2022-10-16T12:44:53;17.60;99.90
54898;DHT22;40800;52.704;6.398;2022-10-16T12:50:31;18.10;99.90
54898;DHT22;40800;52.704;6.398;2022-10-16T12:52:57;18.10;99.90
54898;DHT22;40800;52.704;6.398;2022-10-16T12:55:24;17.90;99.90
54898;DHT22;40800;52.704;6.398;2022-10-16T13:06:13;17.80;99.90
54898;DHT22;40800;52.704;6.398;2022-10-16T13:12:04;17.90;99.90
54898;DHT22;40800;52.704;6.398;2022-10-16T13:17:35;18.30;99.90
54898;DHT22;40800;52.704;6.398;2022-10-16T13:22:51;18.50;99.90
54898;DHT22;40800;52.704;6.398;2022-10-16T13:25:36;18.60;99.90
54898;DHT22;40800;52.704;6.398;2022-10-16T13:28:09;18.80;99.90
54898;DHT22;40800;52.704;6.398;2022-10-16T13:30:38;18.90;99.90
54898;DHT22;40800;52.704;6.398;2022-10-16T13:33:12;18.90;99.90
54898;DHT22;40800;52.704;6.398;2022-10-16T13:35:48;18.70;99.90
54898;DHT22;40800;52.704;6.398;2022-10-16T13:38:16;18.90;99.90
54898;DHT22;40800;52.704;6.398;2022-10-16T13:41:15;19.00;99.90
54898;DHT22;40800;52.704;6.398;2022-10-16T13:43:44;19.20;99.90
54898;DHT22;40800;52.704;6.398;2022-10-16T13:48:43;19.30;99.90
54898;DHT22;40800;52.704;6.398;2022-10-16T13:51:18;19.20;99.90
54898;DHT22;40800;52.704;6.398;2022-10-16T13:53:44;19.10;99.90
54898;DHT22;40800;52.704;6.398;2022-10-16T13:56:19;18.90;99.90
54898;DHT22;40800;52.704;6.398;2022-10-16T13:58:45;18.70;99.90
54898;DHT22;40800;52.704;6.398;2022-10-16T14:01:22;18.60;99.90
54898;DHT22;40800;52.704;6.398;2022-10-16T14:03:49;18.50;99.90
54898;DHT22;40800;52.704;6.398;2022-10-16T14:06:18;18.60;99.90
54898;DHT22;40800;52.704;6.398;2022-10-16T14:08:47;18.60;99.90
54898;DHT22;40800;52.704;6.398;2022-10-16T14:11:21;18.70;99.90
54898;DHT22;40800;52.704;6.398;2022-10-16T14:13:49;18.70;99.90
54898;DHT22;40800;52.704;6.398;2022-10-16T14:16:20;18.60;99.90
54898;DHT22;40800;52.704;6.398;2022-10-16T14:19:00;18.70;99.90
54898;DHT22;40800;52.704;6.398;2022-10-16T14:21:26;18.90;99.90
54898;DHT22;40800;52.704;6.398;2022-10-16T14:23:53;18.70;99.90
54898;DHT22;40800;52.704;6.398;2022-10-16T14:26:25;18.90;99.90
54898;DHT22;40800;52.704;6.398;2022-10-16T14:29:11;18.90;99.90
54898;DHT22;40800;52.704;6.398;2022-10-16T14:31:37;18.80;99.90
54898;DHT22;40800;52.704;6.398;2022-10-16T14:34:03;18.80;99.90
54898;DHT22;40800;52.704;6.398;2022-10-16T14:36:29;18.60;99.90
54898;DHT22;40800;52.704;6.398;2022-10-16T14:39:06;18.70;99.90
54898;DHT22;40800;52.704;6.398;2022-10-16T14:41:45;18.50;99.90
54898;DHT22;40800;52.704;6.398;2022-10-16T14:44:12;18.30;99.90
54898;DHT22;40800;52.704;6.398;2022-10-16T14:46:40;18.20;99.90
54898;DHT22;40800;52.704;6.398;2022-10-16T14:49:14;18.00;99.90
54898;DHT22;40800;52.704;6.398;2022-10-16T14:51:42;17.80;99.90
54898;DHT22;40800;52.704;6.398;2022-10-16T14:54:19;17.80;99.90
54898;DHT22;40800;52.704;6.398;2022-10-16T14:59:30;17.60;99.90
54898;DHT22;40800;52.704;6.398;2022-10-16T15:01:57;17.50;99.90
54898;DHT22;40800;52.704;6.398;2022-10-16T15:04:22;17.50;99.90
54898;DHT22;40800;52.704;6.398;2022-10-16T15:06:48;17.30;99.90
54898;DHT22;40800;52.704;6.398;2022-10-16T15:09:13;17.20;99.90
54898;DHT22;40800;52.704;6.398;2022-10-16T15:11:39;17.10;99.90
54898;DHT22;40800;52.704;6.398;2022-10-16T15:14:05;16.90;99.90
54898;DHT22;40800;52.704;6.398;2022-10-16T15:16:31;16.90;99.90
54898;DHT22;40800;52.704;6.398;2022-10-16T15:18:57;16.80;99.90
54898;DHT22;40800;52.704;6.398;2022-10-16T15:21:30;16.90;99.90
54898;DHT22;40800;52.704;6.398;2022-10-16T15:23:57;16.90;99.90
54898;DHT22;40800;52.704;6.398;2022-10-16T15:26:24;16.90;99.90
54898;DHT22;40800;52.704;6.398;2022-10-16T15:28:50;16.90;99.90
54898;DHT22;40800;52.704;6.398;2022-10-16T15:31:15;16.70;99.90
54898;DHT22;40800;52.704;6.398;2022-10-16T15:33:41;16.60;99.90
54898;DHT22;40800;52.704;6.398;2022-10-16T15:36:07;16.70;99.90
54898;DHT22;40800;52.704;6.398;2022-10-16T15:38:33;16.70;99.90
54898;DHT22;40800;52.704;6.398;2022-10-16T15:40:59;16.80;99.90
54898;DHT22;40800;52.704;6.398;2022-10-16T15:43:25;16.80;99.90
54898;DHT22;40800;52.704;6.398;2022-10-16T15:46:05;16.90;99.90
54898;DHT22;40800;52.704;6.398;2022-10-16T15:48:32;16.90;99.90
54898;DHT22;40800;52.704;6.398;2022-10-16T15:50:59;16.90;99.90
54898;DHT22;40800;52.704;6.398;2022-10-16T15:53:24;16.90;99.90
54898;DHT22;40800;52.704;6.398;2022-10-16T15:55:50;16.90;99.90
54898;DHT22;40800;52.704;6.398;2022-10-16T15:58:16;16.90;99.90
54898;DHT22;40800;52.704;6.398;2022-10-16T16:00:41;16.70;99.90
54898;DHT22;40800;52.704;6.398;2022-10-16T16:03:07;16.60;99.90
54898;DHT22;40800;52.704;6.398;2022-10-16T16:05:33;16.70;99.90
54898;DHT22;40800;52.704;6.398;2022-10-16T16:08:00;16.70;99.90
54898;DHT22;40800;52.704;6.398;2022-10-16T16:10:26;16.70;99.90
54898;DHT22;40800;52.704;6.398;2022-10-16T16:12:51;16.70;99.90
54898;DHT22;40800;52.704;6.398;2022-10-16T16:15:21;16.70;99.90
54898;DHT22;40800;52.704;6.398;2022-10-16T16:17:48;16.60;99.90
54898;DHT22;40800;52.704;6.398;2022-10-16T16:20:14;16.70;99.90
54898;DHT22;40800;52.704;6.398;2022-10-16T16:22:39;16.60;99.90
54898;DHT22;40800;52.704;6.398;2022-10-16T16:25:05;16.70;99.90
54898;DHT22;40800;52.704;6.398;2022-10-16T16:27:31;16.60;99.90
54898;DHT22;40800;52.704;6.398;2022-10-16T16:29:59;16.60;99.90
54898;DHT22;40800;52.704;6.398;2022-10-16T16:32:25;16.40;99.90
54898;DHT22;40800;52.704;6.398;2022-10-16T16:34:50;16.30;99.90
54898;DHT22;40800;52.704;6.398;2022-10-16T16:37:16;16.20;99.90
54898;DHT22;40800;52.704;6.398;2022-10-16T16:39:42;16.10;99.90
54898;DHT22;40800;52.704;6.398;2022-10-16T16:42:07;15.90;99.90
54898;DHT22;40800;52.704;6.398;2022-10-16T16:44:33;15.90;99.90
54898;DHT22;40800;52.704;6.398;2022-10-16T16:47:01;15.80;99.90
54898;DHT22;40800;52.704;6.398;2022-10-16T16:49:27;15.70;99.90
54898;DHT22;40800;52.704;6.398;2022-10-16T16:51:53;15.70;99.90
54898;DHT22;40800;52.704;6.398;2022-10-16T16:54:19;15.60;99.90
54898;DHT22;40800;52.704;6.398;2022-10-16T16:56:45;15.50;99.90
54898;DHT22;40800;52.704;6.398;2022-10-16T16:59:19;15.40;99.90
54898;DHT22;40800;52.704;6.398;2022-10-16T17:01:45;15.20;99.90
54898;DHT22;40800;52.704;6.398;2022-10-16T17:04:12;15.40;99.90
54898;DHT22;40800;52.704;6.398;2022-10-16T17:06:40;15.00;99.90
54898;DHT22;40800;52.704;6.398;2022-10-16T17:09:06;15.00;99.90
54898;DHT22;40800;52.704;6.398;2022-10-16T17:11:32;14.90;99.90
54898;DHT22;40800;52.704;6.398;2022-10-16T17:13:59;14.90;99.90
54898;DHT22;40800;52.704;6.398;2022-10-16T17:16:35;14.80;99.90
54898;DHT22;40800;52.704;6.398;2022-10-16T17:19:04;15.00;99.90
54898;DHT22;40800;52.704;6.398;2022-10-16T17:21:30;14.60;99.90
54898;DHT22;40800;52.704;6.398;2022-10-16T17:23:57;14.60;99.90
54898;DHT22;40800;52.704;6.398;2022-10-16T17:26:23;14.40;99.90